Time;durP1;ratioP1;P1;durP2;ratioP2;P2;SDS_P1;SDS_P2;PMS_P1;PMS_P2;Temp;Humidity;BMP_temperature;BMP_pressure;BME280_temperature;BME280_humidity;BME280_pressure;Samples;Min_cycle;Max_cycle;Signal;HPM_P1;HPM_P2
2021/12/07 00:01:42;;;;;;;3.33;1.67;;;-4.60;99.90;-6.00;96131.00;;;;5051653;28;20455;-78
2021/12/07 00:04:32;;;;;;;4.27;1.53;;;-4.70;99.90;-6.10;96125.00;;;;5041754;28;20443;-77
2021/12/07 00:07:21;;;;;;;0.70;0.70;;;-4.80;99.90;-6.20;96120.00;;;;5039263;28;20436;-77
2021/12/07 00:10:10;;;;;;;3.00;1.07;;;-4.90;99.90;-5.90;96134.00;;;;5037164;28;20796;-78
2021/12/07 00:12:59;;;;;;;1.97;1.57;;;-4.90;99.90;-5.90;96125.00;;;;5028331;28;20439;-76
2021/12/07 00:15:48;;;;;;;1.87;1.47;;;-4.90;99.90;-5.60;96120.00;;;;5040247;28;20429;-79
2021/12/07 00:18:38;;;;;;;2.17;1.97;;;-4.80;99.90;-5.40;96121.00;;;;5044731;28;20453;-77
2021/12/07 00:21:29;;;;;;;5.07;1.40;;;-4.70;99.90;-5.10;96133.00;;;;5039301;28;20497;-78
2021/12/07 00:24:18;;;;;;;1.70;1.60;;;-4.60;99.90;-5.10;96125.00;;;;5047081;28;20435;-76
2021/12/07 00:27:07;;;;;;;2.43;1.47;;;-4.50;99.90;-5.20;96110.00;;;;5028080;28;20436;-76
2021/12/07 00:29:56;;;;;;;1.60;1.50;;;-4.40;99.90;-5.50;96119.00;;;;5038499;28;20429;-78
2021/12/07 00:32:50;;;;;;;1.70;1.60;;;-4.40;99.90;-5.60;96104.00;;;;5032717;28;20455;-77
2021/12/07 00:35:40;;;;;;;1.90;1.40;;;-4.50;99.90;-5.60;96107.00;;;;5040191;28;20432;-76
2021/12/07 00:38:31;;;;;;;3.00;2.30;;;-4.60;99.90;-5.60;96104.00;;;;5033053;28;20501;-77
2021/12/07 00:41:19;;;;;;;1.97;1.80;;;-4.60;99.90;-5.60;96097.00;;;;5035193;28;20456;-77
2021/12/07 00:44:09;;;;;;;1.73;1.63;;;-4.60;99.90;-5.60;96100.00;;;;5028320;28;20774;-77
2021/12/07 00:46:58;;;;;;;1.87;1.77;;;-4.60;99.90;-5.90;96101.00;;;;5039920;28;20471;-76
2021/12/07 00:49:47;;;;;;;1.33;1.23;;;-4.70;99.90;-6.30;96083.00;;;;5043805;28;20946;-76
2021/12/07 00:52:37;;;;;;;3.20;1.97;;;-4.80;99.90;-6.20;96087.00;;;;5049004;28;20466;-77
2021/12/07 00:55:31;;;;;;;2.20;1.90;;;-4.90;99.90;-6.00;96094.00;;;;5033494;28;21056;-77
2021/12/07 00:58:23;;;;;;;2.50;2.27;;;-5.00;99.90;-5.90;96093.00;;;;5042624;28;20443;-76
2021/12/07 01:01:15;;;;;;;2.07;1.87;;;-5.00;99.90;-6.20;96091.00;;;;5035659;28;20469;-76
2021/12/07 01:04:05;;;;;;;1.43;1.33;;;-5.10;99.90;-6.00;96086.00;;;;5032549;28;21202;-76
2021/12/07 01:07:03;;;;;;;1.80;1.67;;;-5.10;99.90;-6.10;96092.00;;;;5032523;28;20459;-76
2021/12/07 01:25:36;;;;;;;1.00;1.00;;;-5.00;99.90;-6.50;96082.00;;;;5027542;28;20565;-76
2021/12/07 01:28:32;;;;;;;1.57;1.10;;;-5.10;99.90;-6.30;96070.00;;;;5035803;28;20423;-76
2021/12/07 01:31:27;;;;;;;1.80;1.70;;;-5.20;99.90;-6.30;96071.00;;;;5031416;28;20451;-76
2021/12/07 01:34:38;;;;;;;2.63;1.13;;;-5.20;99.90;-6.70;96075.00;;;;5024610;28;20535;-76
2021/12/07 01:37:38;;;;;;;1.50;1.40;;;-5.30;99.90;-6.70;96069.00;;;;5025226;28;20425;-77
2021/12/07 01:40:38;;;;;;;2.70;1.23;;;-5.40;99.90;-6.90;96079.00;;;;5034486;28;20450;-77
2021/12/07 01:46:50;;;;;;;2.80;2.20;;;-5.50;99.90;-6.30;96066.00;;;;5013149;28;21538;-79
2021/12/07 01:50:10;;;;;;;2.40;2.13;;;-5.40;99.90;-6.40;96067.00;;;;5042014;28;20427;-76
2021/12/07 01:57:48;;;;;;;1.63;1.53;;;-5.40;99.90;-6.80;96066.00;;;;5047616;28;20438;-77
2021/12/07 01:59:37;;;;;;;2.10;1.87;;;-5.40;99.90;-6.50;96066.00;;;;5044005;28;20813;-76
2021/12/07 02:02:29;;;;;;;1.63;1.53;;;-5.40;99.90;-6.60;96066.00;;;;5048513;28;20467;-76
2021/12/07 02:05:18;;;;;;;2.73;1.87;;;-5.20;99.90;-6.60;96062.00;;;;5031807;28;20439;-77
2021/12/07 02:08:07;;;;;;;2.67;2.10;;;-5.40;99.90;-6.40;96054.00;;;;5043687;28;20683;-79
2021/12/07 02:11:00;;;;;;;2.20;1.33;;;-5.30;99.90;-6.20;96064.00;;;;5045671;28;20463;-77
2021/12/07 02:14:16;;;;;;;0.93;0.90;;;-5.40;99.90;-6.70;96078.00;;;;5049626;28;20438;-77
2021/12/07 02:17:11;;;;;;;1.07;1.03;;;-5.40;99.90;-6.90;96064.00;;;;5048395;28;20439;-76
2021/12/07 02:20:00;;;;;;;1.40;1.30;;;-5.50;99.90;-6.50;96067.00;;;;5044936;28;20423;-78
2021/12/07 02:22:51;;;;;;;1.80;1.50;;;-5.50;99.90;-6.30;96086.00;;;;5054922;28;20455;-77
2021/12/07 02:25:40;;;;;;;2.47;1.60;;;-5.50;99.90;-6.50;96066.00;;;;5047476;28;20509;-76
2021/12/07 02:28:29;;;;;;;2.73;2.40;;;-5.40;99.90;-7.10;96065.00;;;;5047286;28;20447;-77
2021/12/07 02:31:18;;;;;;;3.07;2.00;;;-5.60;99.90;-6.70;96073.00;;;;5049159;28;21070;-77
2021/12/07 02:34:07;;;;;;;1.83;1.73;;;-5.50;99.90;-6.60;96062.00;;;;5041936;28;20439;-76
2021/12/07 02:36:59;;;;;;;1.87;1.30;;;-5.60;99.90;-6.60;96062.00;;;;5045822;28;20977;-78
2021/12/07 02:39:51;;;;;;;2.33;2.13;;;-5.60;99.90;-6.60;96063.00;;;;5039947;28;20834;-77
2021/12/07 02:42:41;;;;;;;3.07;2.07;;;-5.60;99.90;-6.60;96066.00;;;;5048089;28;20447;-77
2021/12/07 02:45:29;;;;;;;1.90;1.73;;;-5.60;99.90;-6.60;96061.00;;;;5033047;28;20427;-77
2021/12/07 02:48:21;;;;;;;1.57;1.47;;;-5.60;99.90;-6.90;96057.00;;;;5052226;28;20968;-77
2021/12/07 02:51:10;;;;;;;2.53;1.37;;;-5.70;99.90;-6.80;96072.00;;;;5042825;28;20465;-76
2021/12/07 02:54:00;;;;;;;1.90;1.80;;;-5.70;99.90;-6.60;96057.00;;;;5045962;28;20806;-77
2021/12/07 02:56:51;;;;;;;0.87;0.87;;;-5.70;99.90;-6.60;96071.00;;;;5043496;28;20447;-76
2021/12/07 02:59:44;;;;;;;2.10;1.37;;;-5.60;99.90;-6.40;96060.00;;;;5055709;28;20438;-76
2021/12/07 03:02:39;;;;;;;1.73;1.63;;;-5.60;99.90;-6.60;96056.00;;;;5044709;28;20451;-76
2021/12/07 03:05:40;;;;;;;0.80;0.80;;;-5.60;99.90;-6.80;96041.00;;;;5048451;28;20569;-77
2021/12/07 03:27:36;;;;;;;1.20;1.20;;;-5.90;99.90;-7.10;96057.00;;;;5047475;28;20478;-76
2021/12/07 03:30:26;;;;;;;0.80;0.80;;;-5.90;99.90;-7.20;96068.00;;;;5045261;28;20807;-76
2021/12/07 03:33:15;;;;;;;1.90;1.23;;;-6.00;99.90;-7.10;96069.00;;;;5038115;28;20942;-76
2021/12/07 03:36:07;;;;;;;1.00;1.00;;;-5.90;99.90;-6.90;96068.00;;;;5032511;28;20444;-78
2021/12/07 03:38:56;;;;;;;1.73;1.63;;;-6.00;99.90;-6.70;96054.00;;;;5038875;28;20427;-78
2021/12/07 03:41:44;;;;;;;0.97;0.97;;;-5.90;99.90;-6.70;96052.00;;;;5049116;28;20477;-77
2021/12/07 03:44:35;;;;;;;1.10;1.10;;;-5.80;99.90;-7.00;96052.00;;;;5046074;28;20443;-77
2021/12/07 03:47:24;;;;;;;1.30;1.20;;;-5.90;99.90;-7.50;96049.00;;;;5052991;28;20458;-77
2021/12/07 03:50:14;;;;;;;0.60;0.60;;;-6.00;99.90;-7.70;96041.00;;;;5054665;28;20424;-75
2021/12/07 03:53:04;;;;;;;0.90;0.90;;;-6.10;99.90;-7.70;96042.00;;;;5054989;28;20808;-77
2021/12/07 03:55:52;;;;;;;1.10;1.03;;;-6.20;99.90;-7.60;96054.00;;;;5037487;28;20446;-76
2021/12/07 03:58:42;;;;;;;1.30;1.20;;;-6.30;99.90;-7.20;96059.00;;;;5041671;28;20436;-77
2021/12/07 04:01:32;;;;;;;0.90;0.90;;;-6.20;99.90;-7.10;96061.00;;;;5045938;28;20243;-76
2021/12/07 04:04:21;;;;;;;1.30;1.23;;;-6.00;99.90;-7.10;96050.00;;;;5048457;28;20497;-75
2021/12/07 04:07:11;;;;;;;1.60;1.50;;;-6.00;99.90;-7.10;96063.00;;;;5045834;28;20886;-75
2021/12/07 04:10:00;;;;;;;2.20;1.83;;;-6.10;99.90;-7.40;96056.00;;;;5040121;28;20470;-75
2021/12/07 04:12:49;;;;;;;1.60;1.50;;;-6.10;99.90;-7.50;96044.00;;;;5045973;28;20455;-76
2021/12/07 04:15:38;;;;;;;1.47;1.37;;;-6.20;99.90;-7.50;96055.00;;;;5047275;28;20447;-75
2021/12/07 04:18:29;;;;;;;1.10;1.10;;;-6.30;99.90;-7.50;96060.00;;;;5046377;28;20451;-75
2021/12/07 04:21:18;;;;;;;0.90;0.90;;;-6.40;99.90;-7.30;96050.00;;;;5046115;28;20997;-76
2021/12/07 04:24:07;;;;;;;1.57;1.20;;;-6.30;99.90;-7.10;96057.00;;;;5035641;28;20431;-75
2021/12/07 04:26:56;;;;;;;0.67;0.67;;;-6.30;99.90;-7.00;96059.00;;;;5045272;28;20463;-75
2021/12/07 04:29:46;;;;;;;1.13;1.03;;;-6.20;99.90;-7.60;96057.00;;;;5035347;28;20424;-75
2021/12/07 04:32:35;;;;;;;1.43;1.33;;;-6.20;99.90;-7.90;96060.00;;;;5045429;28;20454;-77
2021/12/07 04:35:28;;;;;;;3.27;1.30;;;-6.40;99.90;-7.40;96065.00;;;;5031453;28;20925;-74
2021/12/07 04:38:18;;;;;;;1.75;1.45;;;-6.40;99.90;-7.40;96070.00;;;;5038466;28;20858;-77
2021/12/07 04:41:08;;;;;;;2.20;1.50;;;-6.20;99.90;-7.10;96071.00;;;;5033998;28;20231;-77
2021/12/07 04:43:57;;;;;;;1.90;1.77;;;-6.30;99.90;-7.10;96074.00;;;;5045031;28;20204;-78
2021/12/07 04:46:54;;;;;;;1.63;1.52;;;-6.20;99.90;-7.50;96075.00;;;;5045736;28;20474;-76
2021/12/07 04:50:03;;;;;;;1.70;1.60;;;-6.20;99.90;-7.90;96080.00;;;;5047573;28;20205;-76
2021/12/07 04:59:07;;;;;;;2.30;1.90;;;-6.40;99.90;-7.50;96074.00;;;;5042137;28;20201;-78
2021/12/07 05:01:55;;;;;;;2.30;2.10;;;-6.40;99.90;-7.70;96076.00;;;;5052491;28;20453;-77
2021/12/07 05:04:44;;;;;;;0.70;0.70;;;-6.00;99.90;-8.00;96065.00;;;;5037990;28;20439;-76
2021/12/07 05:07:37;;;;;;;4.28;2.75;;;-5.00;99.90;-7.90;96068.00;;;;5036894;28;20484;-75
2021/12/07 05:10:31;;;;;;;7.43;2.27;;;-6.60;99.90;-7.50;96070.00;;;;5038508;28;20578;-78
2021/12/07 05:13:28;;;;;;;2.10;1.88;;;-6.50;99.90;-7.80;96063.00;;;;5043810;28;20458;-76
2021/12/07 05:16:48;;;;;;;2.88;2.22;;;-6.60;99.90;-8.20;96059.00;;;;5044178;28;20279;-77
2021/12/07 05:38:17;;;;;;;1.35;1.33;;;-6.40;99.90;-8.30;96061.00;;;;5025599;28;20630;-77
2021/12/07 05:41:09;;;;;;;0.90;0.90;;;-6.60;99.90;-7.90;96061.00;;;;5023957;28;20233;-78
2021/12/07 05:43:58;;;;;;;2.10;1.33;;;-6.60;99.90;-7.70;96075.00;;;;5034170;28;20205;-78
2021/12/07 05:46:47;;;;;;;2.17;2.08;;;-6.60;99.90;-7.80;96072.00;;;;5033718;28;20201;-77
2021/12/07 05:49:36;;;;;;;0.98;0.98;;;-6.60;99.90;-7.80;96070.00;;;;5024808;28;20570;-78
2021/12/07 05:52:25;;;;;;;0.70;0.70;;;-6.60;99.90;-7.80;96069.00;;;;5025983;28;20225;-75
2021/12/07 05:55:15;;;;;;;1.67;1.52;;;-6.40;99.90;-7.70;96083.00;;;;5037110;28;20680;-77
2021/12/07 05:58:08;;;;;;;1.17;1.08;;;-6.50;99.90;-7.50;96075.00;;;;5038077;28;20514;-77
2021/12/07 06:00:57;;;;;;;1.30;1.20;;;-6.50;99.90;-7.20;96078.00;;;;5055391;28;20219;-76
2021/12/07 06:03:46;;;;;;;12.37;3.23;;;-6.40;99.90;-7.60;96082.00;;;;5046441;28;20431;-75
2021/12/07 06:06:35;;;;;;;0.87;0.87;;;-6.40;99.90;-8.20;96070.00;;;;5046239;28;20432;-78
2021/12/07 06:09:24;;;;;;;2.50;2.30;;;-6.30;99.90;-8.40;96060.00;;;;5041937;28;20466;-75
2021/12/07 06:12:13;;;;;;;1.90;1.80;;;-6.70;99.90;-8.20;96068.00;;;;5033030;28;20444;-76
2021/12/07 06:15:05;;;;;;;1.08;1.08;;;-6.80;99.90;-7.90;96076.00;;;;5051818;28;20215;-75
2021/12/07 06:17:55;;;;;;;1.38;1.27;;;-6.80;99.90;-7.70;96078.00;;;;5056179;28;20280;-77
2021/12/07 06:20:44;;;;;;;1.65;1.55;;;-6.70;99.90;-7.60;96075.00;;;;5045638;28;20209;-76
2021/12/07 06:23:33;;;;;;;1.73;1.53;;;-6.60;99.90;-7.90;96077.00;;;;5046787;28;20201;-76
2021/12/07 06:26:23;;;;;;;2.33;1.80;;;-6.60;99.90;-7.50;96068.00;;;;5034555;28;20532;-75
2021/12/07 06:29:12;;;;;;;1.43;1.33;;;-6.60;99.90;-7.40;96082.00;;;;5045252;28;20468;-75
2021/12/07 06:32:03;;;;;;;2.67;1.30;;;-6.50;99.90;-7.40;96074.00;;;;5046100;28;20448;-76
2021/12/07 06:34:53;;;;;;;1.65;1.50;;;-6.50;99.90;-7.20;96082.00;;;;5043173;28;20204;-76
2021/12/07 06:37:43;;;;;;;1.97;1.70;;;-6.40;99.90;-7.20;96085.00;;;;5043093;28;20204;-75
2021/12/07 06:40:32;;;;;;;1.50;1.43;;;-6.30;99.90;-7.20;96079.00;;;;5044816;28;20524;-75
2021/12/07 06:43:22;;;;;;;1.60;1.50;;;-6.10;99.90;-7.60;96070.00;;;;5044295;28;20458;-75
2021/12/07 06:46:11;;;;;;;1.73;1.63;;;-6.20;99.90;-7.90;96068.00;;;;5046523;28;20415;-75
2021/12/07 06:49:01;;;;;;;3.85;1.67;;;-6.40;99.90;-8.00;96065.00;;;;5048279;28;20482;-77
2021/12/07 06:51:51;;;;;;;2.20;2.00;;;-6.60;99.90;-7.90;96067.00;;;;5050705;28;20266;-76
2021/12/07 06:54:40;;;;;;;1.50;1.40;;;-6.60;99.90;-7.60;96064.00;;;;5049152;28;20211;-76
2021/12/07 06:57:29;;;;;;;1.67;1.58;;;-6.60;99.90;-7.40;96079.00;;;;5050475;28;20204;-77
2021/12/07 07:00:20;;;;;;;2.25;2.00;;;-6.50;99.90;-7.50;96088.00;;;;5048971;28;20204;-78
2021/12/07 07:03:09;;;;;;;1.55;1.45;;;-6.50;99.90;-7.40;96092.00;;;;5050128;28;20599;-77
2021/12/07 07:06:00;;;;;;;2.28;2.08;;;-6.50;99.90;-7.30;96101.00;;;;5050577;28;20278;-77
2021/12/07 07:08:50;;;;;;;1.30;1.27;;;-6.40;99.90;-7.60;96089.00;;;;5048488;28;20224;-75
2021/12/07 07:11:39;;;;;;;1.90;1.20;;;-6.40;99.90;-8.10;96084.00;;;;5048767;28;20455;-77
2021/12/07 07:14:28;;;;;;;4.88;1.75;;;-6.50;99.90;-8.20;96090.00;;;;5049000;28;20212;-76
2021/12/07 07:17:17;;;;;;;1.48;1.38;;;-6.70;99.90;-7.90;96097.00;;;;5048029;28;20242;-76
2021/12/07 07:20:11;;;;;;;4.50;1.40;;;-6.80;99.90;-7.90;96090.00;;;;5047619;28;20197;-75
2021/12/07 07:23:01;;;;;;;6.80;5.37;;;-6.70;99.90;-7.50;96091.00;;;;5038229;28;20216;-76
2021/12/07 07:25:50;;;;;;;6.00;5.40;;;-6.50;99.90;-7.70;96091.00;;;;5033179;28;20439;-76
2021/12/07 07:28:39;;;;;;;2.10;1.93;;;-6.50;99.90;-7.70;96097.00;;;;5047599;28;20243;-77
2021/12/07 07:31:28;;;;;;;3.45;2.53;;;-6.60;99.90;-8.10;96086.00;;;;5035304;28;20449;-76
2021/12/07 07:34:17;;;;;;;1.70;1.50;;;-6.50;99.90;-8.00;96095.00;;;;5033170;28;20281;-79
2021/12/07 07:37:06;;;;;;;1.40;1.30;;;-6.70;99.90;-7.70;96093.00;;;;5050282;28;20961;-77
2021/12/07 07:39:56;;;;;;;2.20;2.00;;;-6.20;99.90;-7.50;96107.00;;;;5053831;28;20215;-77
2021/12/07 07:42:45;;;;;;;1.70;1.53;;;-6.50;99.90;-7.50;96107.00;;;;5049450;28;20642;-77
2021/12/07 07:45:34;;;;;;;1.95;1.52;;;-6.50;99.90;-7.70;96113.00;;;;5054976;28;20435;-76
2021/12/07 07:48:24;;;;;;;1.27;1.17;;;-6.50;99.90;-7.70;96103.00;;;;5048953;28;20224;-75
2021/12/07 07:51:13;;;;;;;2.67;1.77;;;-6.30;99.90;-7.40;96101.00;;;;5048944;28;20225;-75
2021/12/07 07:54:03;;;;;;;0.77;0.77;;;-6.40;99.90;-7.40;96100.00;;;;5049370;28;20199;-77
2021/12/07 07:56:53;;;;;;;1.23;1.10;;;-6.30;99.90;-7.50;96105.00;;;;5048594;28;20334;-76
2021/12/07 07:59:42;;;;;;;1.40;1.40;;;-6.20;99.90;-8.10;96096.00;;;;5034022;28;20424;-75
2021/12/07 08:02:31;;;;;;;1.50;1.27;;;-6.30;99.90;-7.70;96102.00;;;;5048523;28;20852;-75
2021/12/07 08:05:20;;;;;;;1.33;1.23;;;-6.80;99.90;-7.80;96094.00;;;;5046767;28;20611;-77
2021/12/07 08:08:09;;;;;;;0.60;0.60;;;-6.40;99.90;-7.60;96098.00;;;;5047546;28;20707;-77
2021/12/07 08:10:58;;;;;;;3.22;2.92;;;-6.40;99.90;-7.80;96100.00;;;;5047796;28;20447;-77
2021/12/07 08:13:48;;;;;;;6.20;5.47;;;-6.40;99.90;-7.50;96109.00;;;;5047578;28;20197;-75
2021/12/07 08:16:39;;;;;;;3.75;2.80;;;-6.40;99.90;-7.10;96125.00;;;;5029087;28;21004;-76
2021/12/07 08:19:28;;;;;;;1.20;1.10;;;-6.30;99.90;-6.90;96110.00;;;;5047814;28;20273;-75
2021/12/07 08:22:17;;;;;;;1.83;1.67;;;-6.10;99.90;-6.90;96117.00;;;;5047248;28;20872;-76
2021/12/07 08:25:08;;;;;;;5.17;4.17;;;-6.00;99.90;-7.00;96120.00;;;;5048854;28;20427;-75
2021/12/07 08:27:57;;;;;;;3.17;2.90;;;-5.90;99.90;-6.80;96118.00;;;;5049701;28;20436;-75
2021/12/07 08:30:49;;;;;;;2.17;1.93;;;-5.80;99.90;-6.40;96124.00;;;;5050671;28;20212;-76
2021/12/07 08:33:38;;;;;;;5.70;2.63;;;-5.60;99.90;-5.90;96133.00;;;;5049493;28;20433;-76
2021/12/07 08:36:27;;;;;;;3.63;3.13;;;-4.70;99.90;-5.60;96129.00;;;;5045022;28;20522;-76
2021/12/07 08:39:16;;;;;;;2.77;2.33;;;-5.30;99.90;-5.80;96132.00;;;;5046984;28;20469;-78
2021/12/07 08:42:06;;;;;;;8.50;5.30;;;-5.00;99.90;-6.30;96121.00;;;;5036101;28;20466;-76
2021/12/07 08:44:55;;;;;;;1.87;1.77;;;-5.10;99.90;-6.50;96108.00;;;;5050675;28;20441;-77
2021/12/07 08:47:45;;;;;;;3.27;2.33;;;-5.20;99.90;-6.40;96122.00;;;;5053899;28;20954;-77
2021/12/07 08:50:35;;;;;;;2.67;2.10;;;-5.30;99.90;-6.20;96121.00;;;;5047970;28;20470;-77
2021/12/07 08:53:25;;;;;;;2.53;2.33;;;-5.20;99.90;-5.80;96136.00;;;;5045024;28;20428;-76
2021/12/07 08:59:40;;;;;;;2.07;1.93;;;-4.90;99.90;-6.00;96124.00;;;;5044372;28;20736;-79
2021/12/07 09:02:30;;;;;;;1.97;1.87;;;-4.90;99.90;-6.20;96119.00;;;;5054200;28;20521;-77
2021/12/07 09:05:20;;;;;;;3.17;2.70;;;-4.90;99.90;-5.80;96123.00;;;;5035571;28;20428;-77
2021/12/07 09:08:09;;;;;;;3.77;2.87;;;-4.90;99.90;-5.20;96119.00;;;;5044730;28;20443;-77
2021/12/07 09:10:58;;;;;;;2.20;2.00;;;-4.80;99.90;-5.00;96121.00;;;;5046504;28;20447;-78
2021/12/07 09:13:47;;;;;;;6.17;5.57;;;-4.50;99.90;-4.70;96122.00;;;;5049424;28;20424;-78
2021/12/07 09:16:37;;;;;;;4.43;3.83;;;-4.30;99.90;-4.80;96129.00;;;;5029215;28;20436;-76
2021/12/07 09:19:26;;;;;;;7.70;4.40;;;-4.20;99.90;-4.50;96138.00;;;;5046850;28;20450;-79
2021/12/07 09:22:17;;;;;;;2.83;2.47;;;-4.00;99.90;-4.30;96126.00;;;;5049434;28;20826;-78
2021/12/07 09:25:15;;;;;;;5.67;4.83;;;-3.80;99.90;-4.00;96123.00;;;;5047803;28;20427;-78
2021/12/07 09:28:05;;;;;;;4.43;3.87;;;-3.60;99.90;-3.60;96118.00;;;;5048830;28;20442;-79
2021/12/07 09:30:54;;;;;;;5.73;5.23;;;-3.40;99.90;-4.10;96119.00;;;;5027469;28;20476;-76
2021/12/07 09:33:45;;;;;;;5.90;3.73;;;-3.20;99.90;-4.90;96095.00;;;;5043174;28;20447;-78
2021/12/07 09:36:35;;;;;;;6.10;4.80;;;-3.50;99.90;-4.10;96123.00;;;;5043962;28;20938;-77
2021/12/07 09:39:27;;;;;;;6.43;5.00;;;-3.50;99.90;-3.90;96121.00;;;;5059146;28;20523;-77
2021/12/07 09:42:16;;;;;;;4.43;4.03;;;-3.40;99.90;-3.90;96118.00;;;;5038524;28;20443;-79
2021/12/07 09:45:07;;;;;;;3.80;3.27;;;-3.20;99.90;-4.30;96116.00;;;;5048583;28;20921;-77
2021/12/07 09:47:57;;;;;;;4.30;3.90;;;-3.20;99.90;-3.60;96114.00;;;;5047496;28;20545;-76
2021/12/07 09:50:50;;;;;;;4.20;3.90;;;-3.10;99.90;-3.20;96106.00;;;;5046082;28;20463;-76
2021/12/07 09:53:39;;;;;;;6.47;5.13;;;-2.90;99.90;-2.90;96110.00;;;;5045546;28;20439;-76
2021/12/07 09:56:30;;;;;;;5.27;3.83;;;-2.60;99.90;-3.40;96106.00;;;;5052093;28;20420;-77
2021/12/07 09:59:19;;;;;;;5.63;3.20;;;-2.50;99.90;-3.10;96099.00;;;;5053244;28;20422;-76
2021/12/07 10:02:08;;;;;;;4.70;4.30;;;-2.50;99.90;-2.70;96092.00;;;;5036837;28;20436;-77
2021/12/07 10:04:56;;;;;;;7.47;4.40;;;-2.30;99.90;-2.50;96111.00;;;;5044483;28;20439;-77
2021/12/07 10:07:46;;;;;;;5.37;3.97;;;-2.10;99.90;-2.50;96104.00;;;;5050514;28;20433;-79
2021/12/07 10:10:40;;;;;;;3.83;3.40;;;-1.90;99.90;-2.40;96109.00;;;;5054380;28;20474;-77
2021/12/07 10:13:32;;;;;;;5.67;4.20;;;-1.90;99.90;-1.60;96119.00;;;;5039176;28;20432;-79
2021/12/07 10:16:23;;;;;;;7.07;4.23;;;-1.50;99.90;-1.50;96113.00;;;;5047813;28;20423;-78
2021/12/07 10:19:27;;;;;;;6.07;3.53;;;-1.00;99.90;-1.00;96110.00;;;;5047873;28;20518;-77
2021/12/07 10:22:21;;;;;;;3.83;3.47;;;-0.10;99.90;-1.30;96094.00;;;;5051769;28;20454;-80
2021/12/07 10:25:25;;;;;;;6.10;3.40;;;0.40;99.90;-0.30;96108.00;;;;5053340;28;20423;-79
2021/12/07 10:28:27;;;;;;;6.73;3.67;;;0.70;99.90;0.50;96127.00;;;;5054434;28;20430;-80
2021/12/07 10:31:29;;;;;;;6.07;3.70;;;1.50;99.90;0.20;96117.00;;;;5053825;28;20478;-82
2021/12/07 10:34:21;;;;;;;6.67;4.00;;;2.10;99.90;0.30;96108.00;;;;5055371;28;20429;-80
2021/12/07 10:37:14;;;;;;;5.67;4.27;;;2.20;99.90;0.60;96119.00;;;;5064849;28;20457;-81
2021/12/07 10:40:04;;;;;;;4.60;3.10;;;2.10;99.90;0.60;96107.00;;;;5059156;28;20626;-80
2021/12/07 10:42:56;;;;;;;3.33;3.03;;;2.20;99.90;0.30;96102.00;;;;5052731;28;20455;-82
2021/12/07 10:45:45;;;;;;;7.37;3.93;;;2.20;99.90;0.60;96092.00;;;;5054625;28;20460;-81
2021/12/07 10:48:35;;;;;;;5.67;3.50;;;2.10;99.90;0.90;96096.00;;;;5052105;28;21023;-79
2021/12/07 10:51:24;;;;;;;5.63;3.50;;;2.30;99.90;1.00;96090.00;;;;5046553;28;20228;-79
2021/12/07 10:54:13;;;;;;;5.83;4.10;;;2.30;99.90;0.50;96080.00;;;;5048994;28;20197;-79
2021/12/07 10:57:04;;;;;;;6.20;3.83;;;2.10;99.90;1.40;96093.00;;;;5054512;28;20208;-77
2021/12/07 11:00:13;;;;;;;4.87;3.07;;;2.10;99.90;1.40;96090.00;;;;5062827;28;20427;-80
2021/12/07 11:03:06;;;;;;;6.17;4.10;;;2.40;99.90;2.50;96098.00;;;;5054769;28;20235;-78
2021/12/07 11:05:57;;;;;;;4.07;3.13;;;2.80;99.90;1.70;96086.00;;;;5050980;28;20595;-77
2021/12/07 11:08:57;;;;;;;4.10;2.80;;;2.90;99.90;2.90;96107.00;;;;5045249;28;20209;-79
2021/12/07 11:11:46;;;;;;;4.53;3.17;;;3.20;99.90;2.10;96083.00;;;;5042362;28;20239;-77
2021/12/07 11:14:49;;;;;;;4.70;3.30;;;3.40;99.90;2.20;96072.00;;;;5036841;28;20215;-76
2021/12/07 11:17:38;;;;;;;4.67;3.40;;;3.30;99.90;2.40;96092.00;;;;5049649;28;20201;-77
2021/12/07 11:20:29;;;;;;;3.23;2.43;;;3.40;99.90;1.90;96063.00;;;;5051310;28;20204;-78
2021/12/07 11:23:24;;;;;;;3.67;2.80;;;3.30;99.90;1.00;96066.00;;;;5052350;28;20812;-77
2021/12/07 11:29:42;;;;;;;2.63;2.37;;;2.90;99.90;3.30;96080.00;;;;5047725;28;20584;-76
2021/12/07 11:32:31;;;;;;;5.47;3.20;;;3.60;99.90;3.60;96093.00;;;;5048744;28;20224;-76
2021/12/07 11:35:26;;;;;;;12.37;3.43;;;4.20;99.90;4.30;96098.00;;;;5049561;28;20208;-77
2021/12/07 11:38:17;;;;;;;4.10;3.70;;;4.70;99.90;5.10;96100.00;;;;5049568;28;20208;-77
2021/12/07 11:41:20;;;;;;;9.07;4.17;;;5.30;99.90;6.00;96118.00;;;;5041157;28;20221;-77
2021/12/07 11:44:10;;;;;;;6.03;3.80;;;5.90;99.90;6.00;96094.00;;;;5048131;28;20211;-77
2021/12/07 11:47:01;;;;;;;4.70;3.43;;;6.70;99.40;6.70;96105.00;;;;5060122;28;20200;-78
2021/12/07 11:49:50;;;;;;;5.03;3.30;;;7.30;97.20;7.90;96106.00;;;;5048527;28;20205;-77
2021/12/07 11:52:39;;;;;;;4.40;3.03;;;7.80;96.10;8.10;96110.00;;;;5068111;28;20230;-79
2021/12/07 11:55:29;;;;;;;5.00;3.57;;;8.50;92.10;8.50;96118.00;;;;5050691;28;20205;-78
2021/12/07 11:58:20;;;;;;;6.40;3.50;;;9.20;90.50;9.10;96110.00;;;;5050649;28;20208;-77
2021/12/07 12:01:09;;;;;;;7.50;3.50;;;9.60;84.10;9.90;96123.00;;;;5041259;28;20228;-79
2021/12/07 12:03:58;;;;;;;6.50;3.40;;;10.00;82.10;9.30;96102.00;;;;5047497;28;20207;-79
2021/12/07 12:06:48;;;;;;;4.97;3.73;;;10.10;75.80;9.30;96112.00;;;;5050389;28;20207;-80
2021/12/07 12:09:45;;;;;;;6.87;3.20;;;10.40;69.80;9.80;96114.00;;;;5049850;28;20580;-78
2021/12/07 12:12:46;;;;;;;5.67;3.00;;;10.50;69.90;9.00;96136.00;;;;5053640;28;20228;-82
2021/12/07 12:16:04;;;;;;;3.87;3.20;;;10.90;67.40;9.90;96097.00;;;;5047621;28;20301;-78
2021/12/07 12:19:07;;;;;;;7.80;2.90;;;11.20;66.80;9.40;96100.00;;;;5066523;28;20760;-81
2021/12/07 12:22:06;;;;;;;5.10;3.67;;;11.60;63.40;9.40;96146.00;;;;5057267;28;20231;-81
2021/12/07 12:25:00;;;;;;;4.97;3.13;;;11.70;62.70;6.70;96099.00;;;;5045577;28;20212;-78
2021/12/07 12:27:54;;;;;;;3.53;2.77;;;10.60;64.40;5.50;96105.00;;;;5047926;28;20212;-78
2021/12/07 12:30:45;;;;;;;4.03;3.33;;;9.40;65.70;6.20;96100.00;;;;5052559;28;20231;-80
2021/12/07 12:33:53;;;;;;;3.13;2.83;;;8.40;68.80;5.70;96108.00;;;;5047273;28;20211;-76
2021/12/07 12:36:58;;;;;;;7.10;2.10;;;7.90;72.10;4.50;96092.00;;;;5048197;28;20208;-77
2021/12/07 12:39:52;;;;;;;7.63;2.50;;;7.00;75.30;3.60;96084.00;;;;5047563;28;20597;-78
2021/12/07 12:42:43;;;;;;;4.60;2.50;;;5.90;79.90;4.10;96079.00;;;;5047406;28;20221;-79
2021/12/07 12:45:37;;;;;;;3.43;2.47;;;5.60;81.50;4.00;96088.00;;;;5059767;28;20201;-77
2021/12/07 12:48:28;;;;;;;3.47;2.00;;;5.10;83.90;3.50;96096.00;;;;5043379;28;20203;-81
2021/12/07 12:51:18;;;;;;;5.83;2.27;;;5.00;87.20;4.40;96074.00;;;;5049208;28;20224;-79
2021/12/07 12:54:10;;;;;;;7.20;3.50;;;4.90;88.40;5.30;96101.00;;;;5048114;28;20210;-81
2021/12/07 12:57:10;;;;;;;3.43;2.77;;;5.30;87.70;6.20;96110.00;;;;5046048;28;20200;-82
2021/12/07 12:59:59;;;;;;;4.50;2.30;;;5.90;88.10;5.80;96079.00;;;;5046837;28;20208;-80
2021/12/07 13:02:54;;;;;;;6.47;2.87;;;6.40;87.20;6.40;96100.00;;;;5051464;28;20263;-79
2021/12/07 13:05:45;;;;;;;3.70;2.33;;;6.80;86.80;6.60;96126.00;;;;5050341;28;20209;-79
2021/12/07 13:08:54;;;;;;;3.37;1.87;;;7.10;83.70;5.70;96090.00;;;;5052435;28;20668;-77
2021/12/07 13:11:47;;;;;;;6.77;2.07;;;7.20;84.00;4.80;96082.00;;;;5037758;28;20252;-77
2021/12/07 13:14:53;;;;;;;3.43;2.00;;;6.70;85.90;3.80;96091.00;;;;5057776;28;20211;-82
2021/12/07 13:17:46;;;;;;;5.13;2.27;;;6.00;89.40;5.20;96071.00;;;;5044439;28;20188;-79
2021/12/07 13:20:38;;;;;;;2.63;1.77;;;5.80;90.70;6.50;96083.00;;;;5044533;28;20263;-78
2021/12/07 13:23:31;;;;;;;5.37;2.03;;;6.20;90.80;7.00;96091.00;;;;5038276;28;20204;-79
2021/12/07 13:26:24;;;;;;;5.70;2.37;;;6.90;90.10;7.10;96080.00;;;;5047740;28;20224;-80
2021/12/07 13:29:16;;;;;;;2.93;1.87;;;7.50;86.40;8.20;96109.00;;;;5044945;28;20215;-78
2021/12/07 13:32:07;;;;;;;3.37;2.23;;;8.10;86.40;6.30;96097.00;;;;5051152;28;20240;-81
2021/12/07 13:35:03;;;;;;;3.63;2.50;;;8.30;83.10;6.20;96078.00;;;;5049742;28;20208;-80
2021/12/07 13:37:52;;;;;;;3.07;2.10;;;8.20;83.30;4.40;96111.00;;;;5037322;28;20283;-78
2021/12/07 13:40:42;;;;;;;5.57;2.93;;;7.50;82.80;3.80;96118.00;;;;5049123;28;20197;-80
2021/12/07 13:43:35;;;;;;;4.13;1.90;;;6.50;85.30;4.20;96131.00;;;;5044526;28;20289;-79
2021/12/07 13:46:27;;;;;;;2.43;1.77;;;5.70;88.50;3.40;96118.00;;;;5059436;28;20671;-81
2021/12/07 13:49:16;;;;;;;2.23;1.50;;;5.00;91.00;1.90;96116.00;;;;5052156;28;20212;-80
2021/12/07 13:52:13;;;;;;;1.70;1.30;;;4.30;93.10;1.50;96104.00;;;;5048363;28;20225;-80
2021/12/07 13:55:06;;;;;;;2.67;1.40;;;3.50;94.90;1.70;96107.00;;;;5048502;28;20586;-82
2021/12/07 13:58:00;;;;;;;3.80;1.30;;;3.00;97.30;2.30;96071.00;;;;5050789;28;20204;-77
2021/12/07 14:00:49;;;;;;;2.80;1.50;;;2.90;99.70;2.10;96098.00;;;;5049829;28;20474;-79